Fort Wayne International Airport
KFWA : now visible

Airfield :











YOU CAN JOIN US ON...

 
LOGIN :

Register | Disclaimer

   EN    FR    IT 

 









Legend :    VFR   Marginal VFR   IFR   Intensive IFR   Very Intensive IFR
Visi :
Ceiling :
>= 8 km
>= 3000ft
5 to 8 km
1000 to 3000 ft
1500m to 5 km
500 to 1000 ft
800 to 1500m
200 to 500 ft
< 800m
< 200 ft
Symbols :   Thunderstorms  Fog  Heavy snow  Heavy precipitations  Wind > 20 kt







- Airport Elevation : 814 ft
- IATA code : FWA


KFWA - Fort Wayne International

CURRENT METAR :
  • 211554Z VRB03KT 10SM FEW110 SCT250 13/08 A3008 RMK AO2 SLP187 T01330078

EXPIRED METARs :
  • 211454Z 00000KT 10SM FEW110 FEW250 11/08 A3006 RMK AO2 SLP184 T01110078 53009
  • 211354Z 00000KT 10SM FEW110 FEW250 09/06 A3005 RMK AO2 SLP181 T00890061

TAF KFWA
Valid from the 21 at 12:00 until the 22 at 12:00 UTC


211123Z 2112/2212 00000KT 4SM BR SCT003
FM211230 20006KT P6SM SCT100
KZAU FIR / North America



MET'MAP, your aeronautical weather chart ! - Copyright ORBIFLY December 2007 - Disclaimer

ORBIFLY MET'MAP TEAM :

Programming & Development : Alexandra Zaïnal
Concept & Development : Baudouin d'Aumeries
Co-Development & Prog : Marc-Olivier Méhu
Technical & hardware support : Manuel Goepfert

Contact : metmap@orbifly.com




SOURCES & CREDITS :

   NOAA       Earth
Advisory